sensor_id;sensor_type;location;lat;lon;timestamp;pressure;altitude;pressure_sealevel;temperature
29423;BMP180;16399;51.686;8.684;2023-03-01T00:02:49;101343.00;;;-2.00
29423;BMP180;16399;51.686;8.684;2023-03-01T00:05:51;101340.00;;;-2.10
29423;BMP180;16399;51.686;8.684;2023-03-01T00:08:53;101348.00;;;-2.10
29423;BMP180;16399;51.686;8.684;2023-03-01T00:11:55;101343.00;;;-2.10
29423;BMP180;16399;51.686;8.684;2023-03-01T00:14:58;101335.00;;;-2.10
29423;BMP180;16399;51.686;8.684;2023-03-01T00:18:00;101350.00;;;-2.20
29423;BMP180;16399;51.686;8.684;2023-03-01T00:21:02;101347.00;;;-2.20
29423;BMP180;16399;51.686;8.684;2023-03-01T00:24:05;101356.00;;;-2.20
29423;BMP180;16399;51.686;8.684;2023-03-01T00:27:07;101342.00;;;-2.30
29423;BMP180;16399;51.686;8.684;2023-03-01T00:30:10;101338.00;;;-2.30
29423;BMP180;16399;51.686;8.684;2023-03-01T00:33:13;101343.00;;;-2.30
29423;BMP180;16399;51.686;8.684;2023-03-01T00:36:16;101345.00;;;-2.30
29423;BMP180;16399;51.686;8.684;2023-03-01T00:39:18;101357.00;;;-2.30
29423;BMP180;16399;51.686;8.684;2023-03-01T00:42:20;101344.00;;;-2.30
29423;BMP180;16399;51.686;8.684;2023-03-01T00:45:23;101335.00;;;-2.40
29423;BMP180;16399;51.686;8.684;2023-03-01T00:48:25;101351.00;;;-2.40
29423;BMP180;16399;51.686;8.684;2023-03-01T00:51:29;101352.00;;;-2.40
29423;BMP180;16399;51.686;8.684;2023-03-01T00:54:31;101359.00;;;-2.40
29423;BMP180;16399;51.686;8.684;2023-03-01T00:57:34;101350.00;;;-2.40
29423;BMP180;16399;51.686;8.684;2023-03-01T01:00:36;101357.00;;;-2.40
29423;BMP180;16399;51.686;8.684;2023-03-01T01:03:38;101360.00;;;-2.40
29423;BMP180;16399;51.686;8.684;2023-03-01T01:06:45;101355.00;;;-2.40
29423;BMP180;16399;51.686;8.684;2023-03-01T01:09:48;101371.00;;;-2.40
29423;BMP180;16399;51.686;8.684;2023-03-01T01:12:50;101361.00;;;-2.40
29423;BMP180;16399;51.686;8.684;2023-03-01T01:15:52;101351.00;;;-2.40
29423;BMP180;16399;51.686;8.684;2023-03-01T01:18:55;101338.00;;;-2.40
29423;BMP180;16399;51.686;8.684;2023-03-01T01:21:58;101332.00;;;-2.50
29423;BMP180;16399;51.686;8.684;2023-03-01T01:25:00;101331.00;;;-2.50
29423;BMP180;16399;51.686;8.684;2023-03-01T01:28:02;101321.00;;;-2.50
29423;BMP180;16399;51.686;8.684;2023-03-01T01:31:05;101320.00;;;-2.50
29423;BMP180;16399;51.686;8.684;2023-03-01T01:34:19;101319.00;;;-2.60
29423;BMP180;16399;51.686;8.684;2023-03-01T01:37:13;101319.00;;;-2.60
29423;BMP180;16399;51.686;8.684;2023-03-01T01:40:15;101318.00;;;-2.60
29423;BMP180;16399;51.686;8.684;2023-03-01T01:43:34;101304.00;;;-2.60
29423;BMP180;16399;51.686;8.684;2023-03-01T01:46:37;101304.00;;;-2.70
29423;BMP180;16399;51.686;8.684;2023-03-01T01:49:57;101306.00;;;-2.70
29423;BMP180;16399;51.686;8.684;2023-03-01T01:52:53;101306.00;;;-2.80
29423;BMP180;16399;51.686;8.684;2023-03-01T01:55:58;101304.00;;;-2.80
29423;BMP180;16399;51.686;8.684;2023-03-01T01:59:02;101306.00;;;-2.90
29423;BMP180;16399;51.686;8.684;2023-03-01T02:02:04;101313.00;;;-2.90
29423;BMP180;16399;51.686;8.684;2023-03-01T02:05:14;101312.00;;;-3.00
29423;BMP180;16399;51.686;8.684;2023-03-01T02:08:13;101308.00;;;-3.00
29423;BMP180;16399;51.686;8.684;2023-03-01T02:11:16;101317.00;;;-3.00
29423;BMP180;16399;51.686;8.684;2023-03-01T02:14:19;101308.00;;;-3.00
29423;BMP180;16399;51.686;8.684;2023-03-01T02:17:22;101304.00;;;-3.10
29423;BMP180;16399;51.686;8.684;2023-03-01T02:23:38;101300.00;;;-3.10
29423;BMP180;16399;51.686;8.684;2023-03-01T02:26:45;101290.00;;;-3.20
29423;BMP180;16399;51.686;8.684;2023-03-01T02:29:46;101286.00;;;-3.20
29423;BMP180;16399;51.686;8.684;2023-03-01T02:32:49;101288.00;;;-3.30
29423;BMP180;16399;51.686;8.684;2023-03-01T02:35:54;101281.00;;;-3.30
29423;BMP180;16399;51.686;8.684;2023-03-01T02:38:59;101288.00;;;-3.30
29423;BMP180;16399;51.686;8.684;2023-03-01T02:42:03;101292.00;;;-3.40
29423;BMP180;16399;51.686;8.684;2023-03-01T02:45:06;101291.00;;;-3.40
29423;BMP180;16399;51.686;8.684;2023-03-01T02:48:08;101287.00;;;-3.40
29423;BMP180;16399;51.686;8.684;2023-03-01T02:51:22;101285.00;;;-3.40
29423;BMP180;16399;51.686;8.684;2023-03-01T02:54:31;101288.00;;;-3.50
29423;BMP180;16399;51.686;8.684;2023-03-01T02:57:35;101294.00;;;-3.50
29423;BMP180;16399;51.686;8.684;2023-03-01T03:00:41;101287.00;;;-3.50
29423;BMP180;16399;51.686;8.684;2023-03-01T03:03:45;101281.00;;;-3.50
29423;BMP180;16399;51.686;8.684;2023-03-01T03:06:50;101273.00;;;-3.50
29423;BMP180;16399;51.686;8.684;2023-03-01T03:09:52;101258.00;;;-3.60
29423;BMP180;16399;51.686;8.684;2023-03-01T03:13:01;101266.00;;;-3.60
29423;BMP180;16399;51.686;8.684;2023-03-01T03:15:59;101262.00;;;-3.60
29423;BMP180;16399;51.686;8.684;2023-03-01T03:19:01;101255.00;;;-3.60
29423;BMP180;16399;51.686;8.684;2023-03-01T03:22:05;101242.00;;;-3.60
29423;BMP180;16399;51.686;8.684;2023-03-01T03:25:09;101235.00;;;-3.70
29423;BMP180;16399;51.686;8.684;2023-03-01T03:28:11;101235.00;;;-3.70
29423;BMP180;16399;51.686;8.684;2023-03-01T03:31:14;101238.00;;;-3.70
29423;BMP180;16399;51.686;8.684;2023-03-01T03:34:16;101239.00;;;-3.70
29423;BMP180;16399;51.686;8.684;2023-03-01T03:37:19;101231.00;;;-3.70
29423;BMP180;16399;51.686;8.684;2023-03-01T03:40:48;101236.00;;;-3.80
29423;BMP180;16399;51.686;8.684;2023-03-01T03:43:50;101245.00;;;-3.80
29423;BMP180;16399;51.686;8.684;2023-03-01T03:46:52;101244.00;;;-3.80
29423;BMP180;16399;51.686;8.684;2023-03-01T03:49:55;101246.00;;;-3.80
29423;BMP180;16399;51.686;8.684;2023-03-01T03:52:57;101247.00;;;-3.80
29423;BMP180;16399;51.686;8.684;2023-03-01T03:55:59;101247.00;;;-3.80
29423;BMP180;16399;51.686;8.684;2023-03-01T03:59:02;101247.00;;;-3.80
29423;BMP180;16399;51.686;8.684;2023-03-01T04:02:04;101260.00;;;-3.90
29423;BMP180;16399;51.686;8.684;2023-03-01T04:05:07;101246.00;;;-3.80
29423;BMP180;16399;51.686;8.684;2023-03-01T04:08:10;101254.00;;;-3.90
29423;BMP180;16399;51.686;8.684;2023-03-01T04:11:13;101246.00;;;-3.90
29423;BMP180;16399;51.686;8.684;2023-03-01T04:14:27;101255.00;;;-3.90
29423;BMP180;16399;51.686;8.684;2023-03-01T04:17:29;101259.00;;;-3.90
29423;BMP180;16399;51.686;8.684;2023-03-01T04:20:34;101259.00;;;-3.90
29423;BMP180;16399;51.686;8.684;2023-03-01T04:23:37;101258.00;;;-3.90
29423;BMP180;16399;51.686;8.684;2023-03-01T04:26:40;101257.00;;;-4.00
29423;BMP180;16399;51.686;8.684;2023-03-01T04:29:42;101255.00;;;-4.00
29423;BMP180;16399;51.686;8.684;2023-03-01T04:32:44;101254.00;;;-4.00
29423;BMP180;16399;51.686;8.684;2023-03-01T04:35:47;101250.00;;;-4.00
29423;BMP180;16399;51.686;8.684;2023-03-01T04:38:52;101246.00;;;-4.10
29423;BMP180;16399;51.686;8.684;2023-03-01T04:41:54;101248.00;;;-4.10
29423;BMP180;16399;51.686;8.684;2023-03-01T04:44:56;101245.00;;;-4.10
29423;BMP180;16399;51.686;8.684;2023-03-01T04:47:59;101259.00;;;-4.10
29423;BMP180;16399;51.686;8.684;2023-03-01T04:51:01;101257.00;;;-4.10
29423;BMP180;16399;51.686;8.684;2023-03-01T04:54:04;101248.00;;;-4.10
29423;BMP180;16399;51.686;8.684;2023-03-01T04:57:08;101252.00;;;-4.20
29423;BMP180;16399;51.686;8.684;2023-03-01T05:00:11;101248.00;;;-4.20
29423;BMP180;16399;51.686;8.684;2023-03-01T05:03:23;101244.00;;;-4.20
29423;BMP180;16399;51.686;8.684;2023-03-01T05:06:25;101238.00;;;-4.20
29423;BMP180;16399;51.686;8.684;2023-03-01T05:09:28;101246.00;;;-4.20
29423;BMP180;16399;51.686;8.684;2023-03-01T05:12:31;101259.00;;;-4.20
29423;BMP180;16399;51.686;8.684;2023-03-01T05:15:33;101256.00;;;-4.30
29423;BMP180;16399;51.686;8.684;2023-03-01T05:18:38;101249.00;;;-4.30
29423;BMP180;16399;51.686;8.684;2023-03-01T05:21:41;101249.00;;;-4.30
29423;BMP180;16399;51.686;8.684;2023-03-01T05:25:02;101244.00;;;-4.30
29423;BMP180;16399;51.686;8.684;2023-03-01T05:28:05;101241.00;;;-4.40
29423;BMP180;16399;51.686;8.684;2023-03-01T05:31:08;101253.00;;;-4.40
29423;BMP180;16399;51.686;8.684;2023-03-01T05:34:10;101231.00;;;-4.40
29423;BMP180;16399;51.686;8.684;2023-03-01T05:37:14;101228.00;;;-4.40
29423;BMP180;16399;51.686;8.684;2023-03-01T05:40:19;101225.00;;;-4.40
29423;BMP180;16399;51.686;8.684;2023-03-01T05:43:21;101231.00;;;-4.40
29423;BMP180;16399;51.686;8.684;2023-03-01T05:46:24;101225.00;;;-4.40
29423;BMP180;16399;51.686;8.684;2023-03-01T05:49:26;101232.00;;;-4.40
29423;BMP180;16399;51.686;8.684;2023-03-01T05:52:28;101233.00;;;-4.40
29423;BMP180;16399;51.686;8.684;2023-03-01T05:55:32;101242.00;;;-4.40
29423;BMP180;16399;51.686;8.684;2023-03-01T05:58:34;101242.00;;;-4.40
29423;BMP180;16399;51.686;8.684;2023-03-01T06:01:37;101249.00;;;-4.50
29423;BMP180;16399;51.686;8.684;2023-03-01T06:04:39;101247.00;;;-4.50
29423;BMP180;16399;51.686;8.684;2023-03-01T06:07:42;101238.00;;;-4.50
29423;BMP180;16399;51.686;8.684;2023-03-01T06:10:46;101257.00;;;-4.50
29423;BMP180;16399;51.686;8.684;2023-03-01T06:13:54;101256.00;;;-4.60
29423;BMP180;16399;51.686;8.684;2023-03-01T06:16:52;101239.00;;;-4.50
29423;BMP180;16399;51.686;8.684;2023-03-01T06:19:55;101243.00;;;-4.50
29423;BMP180;16399;51.686;8.684;2023-03-01T06:22:57;101235.00;;;-4.50
29423;BMP180;16399;51.686;8.684;2023-03-01T06:26:10;101238.00;;;-4.40
29423;BMP180;16399;51.686;8.684;2023-03-01T06:29:09;101239.00;;;-4.40
29423;BMP180;16399;51.686;8.684;2023-03-01T06:32:11;101228.00;;;-4.40
29423;BMP180;16399;51.686;8.684;2023-03-01T06:35:16;101236.00;;;-4.40
29423;BMP180;16399;51.686;8.684;2023-03-01T06:38:21;101227.00;;;-4.30
29423;BMP180;16399;51.686;8.684;2023-03-01T06:41:23;101230.00;;;-4.30
29423;BMP180;16399;51.686;8.684;2023-03-01T06:44:26;101240.00;;;-4.20
29423;BMP180;16399;51.686;8.684;2023-03-01T06:47:28;101240.00;;;-4.20
29423;BMP180;16399;51.686;8.684;2023-03-01T06:50:31;101223.00;;;-4.10
29423;BMP180;16399;51.686;8.684;2023-03-01T06:53:33;101236.00;;;-4.00
29423;BMP180;16399;51.686;8.684;2023-03-01T06:56:35;101217.00;;;-4.00
29423;BMP180;16399;51.686;8.684;2023-03-01T06:59:38;101226.00;;;-3.90
29423;BMP180;16399;51.686;8.684;2023-03-01T07:02:40;101222.00;;;-3.80
29423;BMP180;16399;51.686;8.684;2023-03-01T07:05:42;101218.00;;;-3.80
29423;BMP180;16399;51.686;8.684;2023-03-01T07:08:45;101223.00;;;-3.70
29423;BMP180;16399;51.686;8.684;2023-03-01T07:11:48;101212.00;;;-3.60
29423;BMP180;16399;51.686;8.684;2023-03-01T07:14:50;101216.00;;;-3.50
29423;BMP180;16399;51.686;8.684;2023-03-01T07:17:52;101203.00;;;-3.40
29423;BMP180;16399;51.686;8.684;2023-03-01T07:20:55;101198.00;;;-3.30
29423;BMP180;16399;51.686;8.684;2023-03-01T07:23:58;101187.00;;;-3.20
29423;BMP180;16399;51.686;8.684;2023-03-01T07:27:00;101201.00;;;-3.00
29423;BMP180;16399;51.686;8.684;2023-03-01T07:30:03;101187.00;;;-2.90
29423;BMP180;16399;51.686;8.684;2023-03-01T07:33:05;101183.00;;;-2.80
29423;BMP180;16399;51.686;8.684;2023-03-01T07:36:09;101176.00;;;-2.60
29423;BMP180;16399;51.686;8.684;2023-03-01T07:39:11;101176.00;;;-2.50
29423;BMP180;16399;51.686;8.684;2023-03-01T07:42:14;101160.00;;;-2.30
29423;BMP180;16399;51.686;8.684;2023-03-01T07:45:16;101168.00;;;-2.20
29423;BMP180;16399;51.686;8.684;2023-03-01T07:48:18;101168.00;;;-2.00
29423;BMP180;16399;51.686;8.684;2023-03-01T07:51:21;101169.00;;;-1.80
29423;BMP180;16399;51.686;8.684;2023-03-01T07:54:23;101170.00;;;-1.60
29423;BMP180;16399;51.686;8.684;2023-03-01T07:57:25;101160.00;;;-1.40
29423;BMP180;16399;51.686;8.684;2023-03-01T08:00:28;101158.00;;;-1.20
29423;BMP180;16399;51.686;8.684;2023-03-01T08:03:30;101142.00;;;-0.90
29423;BMP180;16399;51.686;8.684;2023-03-01T08:06:35;101140.00;;;-0.70
29423;BMP180;16399;51.686;8.684;2023-03-01T08:09:38;101139.00;;;-0.50
29423;BMP180;16399;51.686;8.684;2023-03-01T08:12:40;101135.00;;;-0.40
29423;BMP180;16399;51.686;8.684;2023-03-01T08:15:42;101129.00;;;-0.10
29423;BMP180;16399;51.686;8.684;2023-03-01T08:18:45;101131.00;;;0.20
29423;BMP180;16399;51.686;8.684;2023-03-01T08:21:47;101125.00;;;0.40
29423;BMP180;16399;51.686;8.684;2023-03-01T08:24:49;101124.00;;;0.80
29423;BMP180;16399;51.686;8.684;2023-03-01T08:27:52;101124.00;;;1.10
29423;BMP180;16399;51.686;8.684;2023-03-01T08:30:54;101104.00;;;1.30
29423;BMP180;16399;51.686;8.684;2023-03-01T08:33:59;101111.00;;;1.60
29423;BMP180;16399;51.686;8.684;2023-03-01T08:37:02;101118.00;;;1.90
29423;BMP180;16399;51.686;8.684;2023-03-01T08:40:04;101112.00;;;2.20
29423;BMP180;16399;51.686;8.684;2023-03-01T08:43:08;101109.00;;;2.50
29423;BMP180;16399;51.686;8.684;2023-03-01T08:46:11;101108.00;;;2.70
29423;BMP180;16399;51.686;8.684;2023-03-01T08:49:18;101111.00;;;2.90
29423;BMP180;16399;51.686;8.684;2023-03-01T08:52:21;101095.00;;;3.10
29423;BMP180;16399;51.686;8.684;2023-03-01T08:55:23;101103.00;;;3.30
29423;BMP180;16399;51.686;8.684;2023-03-01T08:58:26;101089.00;;;3.50
29423;BMP180;16399;51.686;8.684;2023-03-01T09:01:28;101086.00;;;3.60
29423;BMP180;16399;51.686;8.684;2023-03-01T09:04:30;101082.00;;;3.60
29423;BMP180;16399;51.686;8.684;2023-03-01T09:07:33;101080.00;;;3.70
29423;BMP180;16399;51.686;8.684;2023-03-01T09:10:37;101083.00;;;3.70
29423;BMP180;16399;51.686;8.684;2023-03-01T09:13:40;101076.00;;;3.80
29423;BMP180;16399;51.686;8.684;2023-03-01T09:16:43;101082.00;;;3.70
29423;BMP180;16399;51.686;8.684;2023-03-01T09:19:46;101077.00;;;3.80
29423;BMP180;16399;51.686;8.684;2023-03-01T09:22:48;101070.00;;;3.90
29423;BMP180;16399;51.686;8.684;2023-03-01T09:25:50;101063.00;;;4.10
29423;BMP180;16399;51.686;8.684;2023-03-01T09:28:55;101056.00;;;4.20
29423;BMP180;16399;51.686;8.684;2023-03-01T09:31:58;101054.00;;;4.40
29423;BMP180;16399;51.686;8.684;2023-03-01T09:35:00;101057.00;;;4.50
29423;BMP180;16399;51.686;8.684;2023-03-01T09:38:04;101058.00;;;4.60
29423;BMP180;16399;51.686;8.684;2023-03-01T09:44:35;101058.00;;;4.90
29423;BMP180;16399;51.686;8.684;2023-03-01T09:47:37;101049.00;;;4.80
29423;BMP180;16399;51.686;8.684;2023-03-01T09:50:41;101063.00;;;4.80
29423;BMP180;16399;51.686;8.684;2023-03-01T09:53:44;101054.00;;;4.90
29423;BMP180;16399;51.686;8.684;2023-03-01T09:57:11;101052.00;;;5.00
29423;BMP180;16399;51.686;8.684;2023-03-01T10:00:21;101050.00;;;5.10
29423;BMP180;16399;51.686;8.684;2023-03-01T10:03:39;101041.00;;;5.20
29423;BMP180;16399;51.686;8.684;2023-03-01T10:06:45;101049.00;;;5.10
29423;BMP180;16399;51.686;8.684;2023-03-01T10:09:48;101047.00;;;5.30
29423;BMP180;16399;51.686;8.684;2023-03-01T10:12:51;101033.00;;;5.30
29423;BMP180;16399;51.686;8.684;2023-03-01T10:16:01;101044.00;;;5.20
29423;BMP180;16399;51.686;8.684;2023-03-01T10:19:04;101037.00;;;5.30
29423;BMP180;16399;51.686;8.684;2023-03-01T10:22:28;101034.00;;;5.30
29423;BMP180;16399;51.686;8.684;2023-03-01T10:29:08;101027.00;;;5.50
29423;BMP180;16399;51.686;8.684;2023-03-01T10:32:11;101031.00;;;5.40
29423;BMP180;16399;51.686;8.684;2023-03-01T10:35:22;101026.00;;;5.50
29423;BMP180;16399;51.686;8.684;2023-03-01T10:38:25;101028.00;;;5.50
29423;BMP180;16399;51.686;8.684;2023-03-01T10:41:28;101025.00;;;5.50
29423;BMP180;16399;51.686;8.684;2023-03-01T10:44:49;101012.00;;;5.50
29423;BMP180;16399;51.686;8.684;2023-03-01T10:48:02;101016.00;;;5.60
29423;BMP180;16399;51.686;8.684;2023-03-01T10:54:05;101010.00;;;5.90
29423;BMP180;16399;51.686;8.684;2023-03-01T10:57:10;101014.00;;;5.90
29423;BMP180;16399;51.686;8.684;2023-03-01T11:00:16;101017.00;;;6.00
29423;BMP180;16399;51.686;8.684;2023-03-01T11:03:36;101017.00;;;6.20
29423;BMP180;16399;51.686;8.684;2023-03-01T11:06:40;101012.00;;;6.40
29423;BMP180;16399;51.686;8.684;2023-03-01T11:09:42;101002.00;;;6.60
29423;BMP180;16399;51.686;8.684;2023-03-01T11:12:44;100996.00;;;6.60
29423;BMP180;16399;51.686;8.684;2023-03-01T11:16:05;100992.00;;;6.60
29423;BMP180;16399;51.686;8.684;2023-03-01T11:22:20;100976.00;;;6.80
29423;BMP180;16399;51.686;8.684;2023-03-01T11:25:48;100982.00;;;6.90
29423;BMP180;16399;51.686;8.684;2023-03-01T11:28:36;100985.00;;;6.90
29423;BMP180;16399;51.686;8.684;2023-03-01T11:31:41;100980.00;;;6.80
29423;BMP180;16399;51.686;8.684;2023-03-01T11:34:58;100977.00;;;6.60
29423;BMP180;16399;51.686;8.684;2023-03-01T11:41:08;100983.00;;;6.40
29423;BMP180;16399;51.686;8.684;2023-03-01T11:44:23;100982.00;;;6.60
29423;BMP180;16399;51.686;8.684;2023-03-01T11:50:46;100967.00;;;6.60
29423;BMP180;16399;51.686;8.684;2023-03-01T11:57:36;100957.00;;;6.70
29423;BMP180;16399;51.686;8.684;2023-03-01T12:07:18;100955.00;;;7.00
29423;BMP180;16399;51.686;8.684;2023-03-01T12:10:30;100950.00;;;7.00
29423;BMP180;16399;51.686;8.684;2023-03-01T12:14:05;100948.00;;;7.00
29423;BMP180;16399;51.686;8.684;2023-03-01T12:17:37;100939.00;;;7.20
29423;BMP180;16399;51.686;8.684;2023-03-01T12:24:10;100926.00;;;7.10
29423;BMP180;16399;51.686;8.684;2023-03-01T12:27:50;100927.00;;;7.20
29423;BMP180;16399;51.686;8.684;2023-03-01T12:31:15;100930.00;;;7.10
29423;BMP180;16399;51.686;8.684;2023-03-01T12:37:59;100911.00;;;6.90
29423;BMP180;16399;51.686;8.684;2023-03-01T12:41:28;100926.00;;;6.90
29423;BMP180;16399;51.686;8.684;2023-03-01T12:44:41;100903.00;;;6.90
29423;BMP180;16399;51.686;8.684;2023-03-01T12:47:48;100906.00;;;6.90
29423;BMP180;16399;51.686;8.684;2023-03-01T12:50:54;100898.00;;;6.90
29423;BMP180;16399;51.686;8.684;2023-03-01T12:53:59;100892.00;;;6.90
29423;BMP180;16399;51.686;8.684;2023-03-01T12:57:13;100892.00;;;7.10
29423;BMP180;16399;51.686;8.684;2023-03-01T13:10:21;100877.00;;;7.20
29423;BMP180;16399;51.686;8.684;2023-03-01T13:13:24;100880.00;;;7.10
29423;BMP180;16399;51.686;8.684;2023-03-01T13:16:40;100880.00;;;7.10
29423;BMP180;16399;51.686;8.684;2023-03-01T13:19:58;100883.00;;;7.20
29423;BMP180;16399;51.686;8.684;2023-03-01T13:23:03;100864.00;;;7.20
29423;BMP180;16399;51.686;8.684;2023-03-01T13:26:12;100871.00;;;7.30
29423;BMP180;16399;51.686;8.684;2023-03-01T13:29:25;100861.00;;;7.40
29423;BMP180;16399;51.686;8.684;2023-03-01T13:32:27;100864.00;;;7.40
29423;BMP180;16399;51.686;8.684;2023-03-01T13:35:43;100833.00;;;7.40
29423;BMP180;16399;51.686;8.684;2023-03-01T13:41:59;100851.00;;;7.50
29423;BMP180;16399;51.686;8.684;2023-03-01T13:45:02;100851.00;;;7.50
29423;BMP180;16399;51.686;8.684;2023-03-01T13:48:09;100844.00;;;7.50
29423;BMP180;16399;51.686;8.684;2023-03-01T13:51:13;100832.00;;;7.70
29423;BMP180;16399;51.686;8.684;2023-03-01T13:54:20;100826.00;;;7.70
29423;BMP180;16399;51.686;8.684;2023-03-01T13:57:23;100831.00;;;7.70
29423;BMP180;16399;51.686;8.684;2023-03-01T14:00:28;100822.00;;;7.50
29423;BMP180;16399;51.686;8.684;2023-03-01T14:03:33;100824.00;;;7.40
29423;BMP180;16399;51.686;8.684;2023-03-01T14:06:36;100822.00;;;7.50
29423;BMP180;16399;51.686;8.684;2023-03-01T14:09:40;100820.00;;;7.60
29423;BMP180;16399;51.686;8.684;2023-03-01T14:12:50;100812.00;;;7.60
29423;BMP180;16399;51.686;8.684;2023-03-01T14:16:16;100809.00;;;7.60
29423;BMP180;16399;51.686;8.684;2023-03-01T14:19:26;100801.00;;;7.80
29423;BMP180;16399;51.686;8.684;2023-03-01T14:22:32;100797.00;;;7.80
29423;BMP180;16399;51.686;8.684;2023-03-01T14:25:36;100801.00;;;7.70
29423;BMP180;16399;51.686;8.684;2023-03-01T14:28:41;100798.00;;;7.60
29423;BMP180;16399;51.686;8.684;2023-03-01T14:31:44;100800.00;;;7.50
29423;BMP180;16399;51.686;8.684;2023-03-01T14:34:50;100798.00;;;7.60
29423;BMP180;16399;51.686;8.684;2023-03-01T14:37:52;100812.00;;;7.50
29423;BMP180;16399;51.686;8.684;2023-03-01T14:40:57;100807.00;;;7.50
29423;BMP180;16399;51.686;8.684;2023-03-01T14:44:03;100810.00;;;7.50
29423;BMP180;16399;51.686;8.684;2023-03-01T14:47:05;100819.00;;;7.30
29423;BMP180;16399;51.686;8.684;2023-03-01T14:50:14;100804.00;;;7.30
29423;BMP180;16399;51.686;8.684;2023-03-01T14:53:18;100802.00;;;7.30
29423;BMP180;16399;51.686;8.684;2023-03-01T14:56:21;100793.00;;;7.20
29423;BMP180;16399;51.686;8.684;2023-03-01T14:59:24;100792.00;;;7.20
29423;BMP180;16399;51.686;8.684;2023-03-01T15:02:27;100798.00;;;7.10
29423;BMP180;16399;51.686;8.684;2023-03-01T15:05:32;100792.00;;;7.20
29423;BMP180;16399;51.686;8.684;2023-03-01T15:08:36;100794.00;;;7.20
29423;BMP180;16399;51.686;8.684;2023-03-01T15:11:39;100786.00;;;7.10
29423;BMP180;16399;51.686;8.684;2023-03-01T15:14:43;100786.00;;;7.10
29423;BMP180;16399;51.686;8.684;2023-03-01T15:17:52;100775.00;;;7.00
29423;BMP180;16399;51.686;8.684;2023-03-01T15:21:05;100778.00;;;7.00
29423;BMP180;16399;51.686;8.684;2023-03-01T15:27:23;100775.00;;;6.80
29423;BMP180;16399;51.686;8.684;2023-03-01T15:30:27;100778.00;;;6.70
29423;BMP180;16399;51.686;8.684;2023-03-01T15:33:33;100784.00;;;6.60
29423;BMP180;16399;51.686;8.684;2023-03-01T15:36:46;100768.00;;;6.60
29423;BMP180;16399;51.686;8.684;2023-03-01T15:39:56;100770.00;;;6.50
29423;BMP180;16399;51.686;8.684;2023-03-01T15:43:00;100768.00;;;6.50
29423;BMP180;16399;51.686;8.684;2023-03-01T15:46:03;100760.00;;;6.50
29423;BMP180;16399;51.686;8.684;2023-03-01T15:49:52;100759.00;;;6.50
29423;BMP180;16399;51.686;8.684;2023-03-01T15:52:20;100755.00;;;6.40
29423;BMP180;16399;51.686;8.684;2023-03-01T15:55:30;100749.00;;;6.40
29423;BMP180;16399;51.686;8.684;2023-03-01T15:58:34;100756.00;;;6.30
29423;BMP180;16399;51.686;8.684;2023-03-01T16:01:36;100762.00;;;6.30
29423;BMP180;16399;51.686;8.684;2023-03-01T16:04:39;100769.00;;;6.30
29423;BMP180;16399;51.686;8.684;2023-03-01T16:07:41;100754.00;;;6.40
29423;BMP180;16399;51.686;8.684;2023-03-01T16:10:44;100762.00;;;6.50
29423;BMP180;16399;51.686;8.684;2023-03-01T16:13:49;100758.00;;;6.50
29423;BMP180;16399;51.686;8.684;2023-03-01T16:16:51;100751.00;;;6.50
29423;BMP180;16399;51.686;8.684;2023-03-01T16:19:54;100742.00;;;6.30
29423;BMP180;16399;51.686;8.684;2023-03-01T16:23:01;100753.00;;;6.20
29423;BMP180;16399;51.686;8.684;2023-03-01T16:26:03;100759.00;;;6.10
29423;BMP180;16399;51.686;8.684;2023-03-01T16:29:05;100760.00;;;6.00
29423;BMP180;16399;51.686;8.684;2023-03-01T16:32:08;100753.00;;;5.90
29423;BMP180;16399;51.686;8.684;2023-03-01T16:35:12;100769.00;;;5.80
29423;BMP180;16399;51.686;8.684;2023-03-01T16:38:15;100762.00;;;5.70
29423;BMP180;16399;51.686;8.684;2023-03-01T16:41:19;100764.00;;;5.60
29423;BMP180;16399;51.686;8.684;2023-03-01T16:44:22;100768.00;;;5.50
29423;BMP180;16399;51.686;8.684;2023-03-01T16:47:24;100767.00;;;5.40
29423;BMP180;16399;51.686;8.684;2023-03-01T16:50:26;100780.00;;;5.30
29423;BMP180;16399;51.686;8.684;2023-03-01T16:53:29;100775.00;;;5.20
29423;BMP180;16399;51.686;8.684;2023-03-01T16:56:31;100774.00;;;5.10
29423;BMP180;16399;51.686;8.684;2023-03-01T16:59:35;100777.00;;;5.00
29423;BMP180;16399;51.686;8.684;2023-03-01T17:02:39;100783.00;;;4.90
29423;BMP180;16399;51.686;8.684;2023-03-01T17:05:42;100790.00;;;4.90
29423;BMP180;16399;51.686;8.684;2023-03-01T17:08:44;100783.00;;;4.80
29423;BMP180;16399;51.686;8.684;2023-03-01T17:11:47;100786.00;;;4.70
29423;BMP180;16399;51.686;8.684;2023-03-01T17:14:50;100788.00;;;4.60
29423;BMP180;16399;51.686;8.684;2023-03-01T17:17:52;100789.00;;;4.50
29423;BMP180;16399;51.686;8.684;2023-03-01T17:20:54;100802.00;;;4.50
29423;BMP180;16399;51.686;8.684;2023-03-01T17:23:57;100792.00;;;4.40
29423;BMP180;16399;51.686;8.684;2023-03-01T17:27:00;100797.00;;;4.40
29423;BMP180;16399;51.686;8.684;2023-03-01T17:30:03;100799.00;;;4.30
29423;BMP180;16399;51.686;8.684;2023-03-01T17:33:05;100801.00;;;4.20
29423;BMP180;16399;51.686;8.684;2023-03-01T17:36:07;100798.00;;;4.10
29423;BMP180;16399;51.686;8.684;2023-03-01T17:39:10;100801.00;;;4.00
29423;BMP180;16399;51.686;8.684;2023-03-01T17:42:12;100803.00;;;3.90
29423;BMP180;16399;51.686;8.684;2023-03-01T17:45:15;100820.00;;;3.80
29423;BMP180;16399;51.686;8.684;2023-03-01T17:48:17;100814.00;;;3.70
29423;BMP180;16399;51.686;8.684;2023-03-01T17:51:19;100819.00;;;3.60
29423;BMP180;16399;51.686;8.684;2023-03-01T17:54:22;100809.00;;;3.60
29423;BMP180;16399;51.686;8.684;2023-03-01T17:57:24;100818.00;;;3.60
29423;BMP180;16399;51.686;8.684;2023-03-01T18:00:28;100805.00;;;3.50
29423;BMP180;16399;51.686;8.684;2023-03-01T18:03:30;100807.00;;;3.50
29423;BMP180;16399;51.686;8.684;2023-03-01T18:06:34;100811.00;;;3.50
29423;BMP180;16399;51.686;8.684;2023-03-01T18:09:36;100821.00;;;3.50
29423;BMP180;16399;51.686;8.684;2023-03-01T18:12:39;100824.00;;;3.40
29423;BMP180;16399;51.686;8.684;2023-03-01T18:15:41;100828.00;;;3.30
29423;BMP180;16399;51.686;8.684;2023-03-01T18:18:44;100815.00;;;3.20
29423;BMP180;16399;51.686;8.684;2023-03-01T18:21:46;100819.00;;;3.10
29423;BMP180;16399;51.686;8.684;2023-03-01T18:24:48;100822.00;;;3.00
29423;BMP180;16399;51.686;8.684;2023-03-01T18:27:50;100812.00;;;3.00
29423;BMP180;16399;51.686;8.684;2023-03-01T18:31:00;100801.00;;;2.90
29423;BMP180;16399;51.686;8.684;2023-03-01T18:34:03;100802.00;;;2.80
29423;BMP180;16399;51.686;8.684;2023-03-01T18:37:06;100807.00;;;2.80